sensor_id;sensor_type;location;lat;lon;timestamp;pressure;altitude;pressure_sealevel;temperature;humidity
60583;BME280;46415;47.536;19.066;2023-04-06T00:02:14;100617.72;;;0.82;61.87
60583;BME280;46415;47.536;19.066;2023-04-06T00:05:18;100614.34;;;0.77;65.76
60583;BME280;46415;47.536;19.066;2023-04-06T00:08:21;100617.72;;;0.64;69.20
60583;BME280;46415;47.536;19.066;2023-04-06T00:11:24;100617.69;;;0.55;73.36
60583;BME280;46415;47.536;19.066;2023-04-06T00:14:27;100610.91;;;0.45;73.65
60583;BME280;46415;47.536;19.066;2023-04-06T00:17:29;100615.12;;;0.43;74.05
60583;BME280;46415;47.536;19.066;2023-04-06T00:20:32;100613.41;;;0.31;74.59
60583;BME280;46415;47.536;19.066;2023-04-06T00:23:35;100606.59;;;0.21;75.49
60583;BME280;46415;47.536;19.066;2023-04-06T00:26:37;100605.75;;;0.17;75.66
60583;BME280;46415;47.536;19.066;2023-04-06T00:29:40;100594.66;;;0.08;75.21
60583;BME280;46415;47.536;19.066;2023-04-06T00:32:42;100603.13;;;-0.06;76.40
60583;BME280;46415;47.536;19.066;2023-04-06T00:35:45;100595.47;;;-0.13;76.25
60583;BME280;46415;47.536;19.066;2023-04-06T00:38:48;100591.22;;;-0.13;77.01
60583;BME280;46415;47.536;19.066;2023-04-06T00:41:51;100592.06;;;-0.18;78.31
60583;BME280;46415;47.536;19.066;2023-04-06T00:44:57;100600.56;;;-0.19;78.36
60583;BME280;46415;47.536;19.066;2023-04-06T00:48:01;100593.72;;;-0.23;78.30
60583;BME280;46415;47.536;19.066;2023-04-06T00:51:04;100592.00;;;-0.27;78.95
60583;BME280;46415;47.536;19.066;2023-04-06T00:54:07;100585.19;;;-0.37;79.92
60583;BME280;46415;47.536;19.066;2023-04-06T00:57:10;100591.09;;;-0.42;79.23
60583;BME280;46415;47.536;19.066;2023-04-06T01:00:14;100588.59;;;-0.37;78.82
60583;BME280;46415;47.536;19.066;2023-04-06T01:03:18;100589.41;;;-0.44;78.22
60583;BME280;46415;47.536;19.066;2023-04-06T01:06:21;100585.09;;;-0.53;80.29
60583;BME280;46415;47.536;19.066;2023-04-06T01:09:26;100596.97;;;-0.58;80.63
60583;BME280;46415;47.536;19.066;2023-04-06T01:12:29;100593.53;;;-0.64;81.16
60583;BME280;46415;47.536;19.066;2023-04-06T01:15:32;100596.91;;;-0.73;81.64
60583;BME280;46415;47.536;19.066;2023-04-06T01:18:37;100595.16;;;-0.77;80.85
60583;BME280;46415;47.536;19.066;2023-04-06T01:21:43;100595.16;;;-0.80;81.46
60583;BME280;46415;47.536;19.066;2023-04-06T01:24:47;100587.47;;;-0.83;82.46
60583;BME280;46415;47.536;19.066;2023-04-06T01:27:49;100592.59;;;-0.82;82.22
60583;BME280;46415;47.536;19.066;2023-04-06T01:30:53;100590.88;;;-0.83;81.60
60583;BME280;46415;47.536;19.066;2023-04-06T01:33:56;100593.44;;;-0.84;81.35
60583;BME280;46415;47.536;19.066;2023-04-06T01:36:59;100591.75;;;-0.85;80.65
60583;BME280;46415;47.536;19.066;2023-04-06T01:40:03;100588.38;;;-0.79;79.31
60583;BME280;46415;47.536;19.066;2023-04-06T01:43:09;100586.63;;;-0.90;80.23
60583;BME280;46415;47.536;19.066;2023-04-06T01:46:13;100589.09;;;-0.99;81.14
60583;BME280;46415;47.536;19.066;2023-04-06T01:49:16;100590.78;;;-1.01;81.56
60583;BME280;46415;47.536;19.066;2023-04-06T01:52:19;100584.84;;;-0.98;81.64
60583;BME280;46415;47.536;19.066;2023-04-06T01:55:24;100585.72;;;-0.98;81.75
60583;BME280;46415;47.536;19.066;2023-04-06T01:58:28;100581.47;;;-0.97;81.63
60583;BME280;46415;47.536;19.066;2023-04-06T02:01:31;100578.91;;;-0.99;80.79
60583;BME280;46415;47.536;19.066;2023-04-06T02:04:34;100579.81;;;-0.92;80.17
60583;BME280;46415;47.536;19.066;2023-04-06T02:07:41;100574.69;;;-0.94;79.33
60583;BME280;46415;47.536;19.066;2023-04-06T02:10:46;100573.84;;;-0.96;78.94
60583;BME280;46415;47.536;19.066;2023-04-06T02:13:49;100570.50;;;-0.90;78.14
60583;BME280;46415;47.536;19.066;2023-04-06T02:16:53;100562.84;;;-0.90;77.67
60583;BME280;46415;47.536;19.066;2023-04-06T02:19:57;100568.81;;;-0.85;77.27
60583;BME280;46415;47.536;19.066;2023-04-06T02:23:00;100564.56;;;-0.85;77.47
60583;BME280;46415;47.536;19.066;2023-04-06T02:26:02;100556.91;;;-0.83;79.19
60583;BME280;46415;47.536;19.066;2023-04-06T02:29:05;100560.28;;;-0.89;79.69
60583;BME280;46415;47.536;19.066;2023-04-06T02:32:09;100551.78;;;-0.92;79.91
60583;BME280;46415;47.536;19.066;2023-04-06T02:35:11;100556.84;;;-0.94;80.16
60583;BME280;46415;47.536;19.066;2023-04-06T02:38:14;100556.06;;;-0.90;81.73
60583;BME280;46415;47.536;19.066;2023-04-06T02:41:17;100554.34;;;-0.92;81.90
60583;BME280;46415;47.536;19.066;2023-04-06T02:44:23;100548.41;;;-0.91;80.10
60583;BME280;46415;47.536;19.066;2023-04-06T02:47:25;100551.75;;;-0.94;79.65
60583;BME280;46415;47.536;19.066;2023-04-06T02:50:28;100547.50;;;-0.99;79.61
60583;BME280;46415;47.536;19.066;2023-04-06T02:53:32;100550.03;;;-0.99;79.62
60583;BME280;46415;47.536;19.066;2023-04-06T02:56:35;100549.16;;;-1.01;79.77
60583;BME280;46415;47.536;19.066;2023-04-06T02:59:37;100550.84;;;-1.08;79.94
60583;BME280;46415;47.536;19.066;2023-04-06T03:02:41;100548.28;;;-1.09;79.24
60583;BME280;46415;47.536;19.066;2023-04-06T03:05:44;100543.19;;;-1.09;79.16
60583;BME280;46415;47.536;19.066;2023-04-06T03:08:49;100540.62;;;-1.12;79.23
60583;BME280;46415;47.536;19.066;2023-04-06T03:11:51;100541.50;;;-1.10;79.45
60583;BME280;46415;47.536;19.066;2023-04-06T03:14:56;100540.66;;;-1.09;79.47
60583;BME280;46415;47.536;19.066;2023-04-06T03:17:59;100549.13;;;-1.10;79.26
60583;BME280;46415;47.536;19.066;2023-04-06T03:21:03;100550.84;;;-1.09;79.15
60583;BME280;46415;47.536;19.066;2023-04-06T03:24:12;100548.28;;;-1.14;81.37
60583;BME280;46415;47.536;19.066;2023-04-06T03:27:17;100544.00;;;-1.16;80.75
60583;BME280;46415;47.536;19.066;2023-04-06T03:30:20;100545.66;;;-1.21;81.34
60583;BME280;46415;47.536;19.066;2023-04-06T03:33:23;100547.34;;;-1.24;81.11
60583;BME280;46415;47.536;19.066;2023-04-06T03:36:29;100550.72;;;-1.25;81.78
60583;BME280;46415;47.536;19.066;2023-04-06T03:39:33;100543.94;;;-1.27;81.25
60583;BME280;46415;47.536;19.066;2023-04-06T03:42:36;100547.31;;;-1.27;80.94
60583;BME280;46415;47.536;19.066;2023-04-06T03:45:39;100547.31;;;-1.27;81.20
60583;BME280;46415;47.536;19.066;2023-04-06T03:48:42;100543.06;;;-1.28;81.04
60583;BME280;46415;47.536;19.066;2023-04-06T03:51:45;100543.09;;;-1.26;81.41
60583;BME280;46415;47.536;19.066;2023-04-06T03:54:47;100543.91;;;-1.29;82.96
60583;BME280;46415;47.536;19.066;2023-04-06T03:57:50;100544.00;;;-1.16;82.32
60583;BME280;46415;47.536;19.066;2023-04-06T04:00:53;100541.44;;;-1.16;81.66
60583;BME280;46415;47.536;19.066;2023-04-06T04:03:56;100542.28;;;-1.20;82.90
60583;BME280;46415;47.536;19.066;2023-04-06T04:06:58;100539.75;;;-1.16;81.07
60583;BME280;46415;47.536;19.066;2023-04-06T04:10:01;100539.75;;;-1.16;79.97
60583;BME280;46415;47.536;19.066;2023-04-06T04:13:05;100535.53;;;-1.15;78.97
60583;BME280;46415;47.536;19.066;2023-04-06T04:16:08;100529.66;;;-1.04;78.73
60583;BME280;46415;47.536;19.066;2023-04-06T04:19:11;100527.09;;;-1.01;78.39
60583;BME280;46415;47.536;19.066;2023-04-06T04:22:14;100529.63;;;-1.05;78.57
60583;BME280;46415;47.536;19.066;2023-04-06T04:25:16;100530.47;;;-1.05;78.45
60583;BME280;46415;47.536;19.066;2023-04-06T04:28:19;100521.16;;;-1.00;78.06
60583;BME280;46415;47.536;19.066;2023-04-06T04:31:22;100531.38;;;-0.94;77.64
60583;BME280;46415;47.536;19.066;2023-04-06T04:34:26;100521.19;;;-0.98;78.79
60583;BME280;46415;47.536;19.066;2023-04-06T04:37:29;100529.69;;;-0.93;77.36
60583;BME280;46415;47.536;19.066;2023-04-06T04:40:32;100524.63;;;-0.89;78.19
60583;BME280;46415;47.536;19.066;2023-04-06T04:43:36;100515.31;;;-0.82;78.46
60583;BME280;46415;47.536;19.066;2023-04-06T04:46:39;100513.66;;;-0.78;76.78
60583;BME280;46415;47.536;19.066;2023-04-06T04:49:44;100517.06;;;-0.72;77.32
60583;BME280;46415;47.536;19.066;2023-04-06T04:52:50;100515.41;;;-0.67;78.81
60583;BME280;46415;47.536;19.066;2023-04-06T04:55:54;100508.66;;;-0.50;77.95
60583;BME280;46415;47.536;19.066;2023-04-06T04:58:57;100522.25;;;-0.46;77.19
60583;BME280;46415;47.536;19.066;2023-04-06T05:02:02;100528.25;;;-0.38;77.30
60583;BME280;46415;47.536;19.066;2023-04-06T05:05:06;100525.69;;;-0.29;76.78
60583;BME280;46415;47.536;19.066;2023-04-06T05:08:09;100524.91;;;-0.13;75.43
60583;BME280;46415;47.536;19.066;2023-04-06T05:11:12;100511.31;;;0.07;74.63
60583;BME280;46415;47.536;19.066;2023-04-06T05:14:16;100513.88;;;0.26;73.17
60583;BME280;46415;47.536;19.066;2023-04-06T05:17:20;100504.53;;;0.31;71.94
60583;BME280;46415;47.536;19.066;2023-04-06T05:20:22;100498.56;;;0.38;70.56
60583;BME280;46415;47.536;19.066;2023-04-06T05:23:26;100495.16;;;0.58;70.06
60583;BME280;46415;47.536;19.066;2023-04-06T05:26:28;100490.03;;;0.61;69.96
60583;BME280;46415;47.536;19.066;2023-04-06T05:29:33;100484.06;;;0.75;67.90
60583;BME280;46415;47.536;19.066;2023-04-06T05:32:36;100487.47;;;0.76;68.30
60583;BME280;46415;47.536;19.066;2023-04-06T05:35:39;100486.56;;;0.86;67.64
60583;BME280;46415;47.536;19.066;2023-04-06T05:38:43;100481.47;;;0.94;67.04
60583;BME280;46415;47.536;19.066;2023-04-06T05:41:48;100478.84;;;1.12;66.69
60583;BME280;46415;47.536;19.066;2023-04-06T05:44:51;100481.31;;;1.29;65.83
60583;BME280;46415;47.536;19.066;2023-04-06T05:47:54;100486.38;;;1.41;66.01
60583;BME280;46415;47.536;19.066;2023-04-06T05:50:57;100477.84;;;1.48;65.96
60583;BME280;46415;47.536;19.066;2023-04-06T05:54:01;100472.69;;;1.54;64.60
60583;BME280;46415;47.536;19.066;2023-04-06T05:57:04;100474.44;;;1.43;65.57
60583;BME280;46415;47.536;19.066;2023-04-06T06:00:07;100483.78;;;1.51;65.44
60583;BME280;46415;47.536;19.066;2023-04-06T06:03:14;100465.84;;;1.59;62.69
60583;BME280;46415;47.536;19.066;2023-04-06T06:06:20;100470.94;;;1.59;63.95
60583;BME280;46415;47.536;19.066;2023-04-06T06:09:23;100467.44;;;1.78;62.99
60583;BME280;46415;47.536;19.066;2023-04-06T06:12:27;100458.81;;;1.88;62.40
60583;BME280;46415;47.536;19.066;2023-04-06T06:15:30;100451.91;;;2.02;61.24
60583;BME280;46415;47.536;19.066;2023-04-06T06:18:33;100467.25;;;1.99;61.03
60583;BME280;46415;47.536;19.066;2023-04-06T06:21:36;100458.63;;;2.14;59.95
60583;BME280;46415;47.536;19.066;2023-04-06T06:24:39;100453.41;;;2.22;59.56
60583;BME280;46415;47.536;19.066;2023-04-06T06:27:42;100455.91;;;2.32;58.53
60583;BME280;46415;47.536;19.066;2023-04-06T06:30:45;100445.56;;;2.43;57.95
60583;BME280;46415;47.536;19.066;2023-04-06T06:33:50;100436.91;;;2.53;57.84
60583;BME280;46415;47.536;19.066;2023-04-06T06:36:54;100442.72;;;2.72;58.13
60583;BME280;46415;47.536;19.066;2023-04-06T06:39:58;100439.88;;;2.98;56.93
60583;BME280;46415;47.536;19.066;2023-04-06T06:43:01;100431.91;;;3.17;53.24
60583;BME280;46415;47.536;19.066;2023-04-06T06:46:05;100434.97;;;3.45;52.17
60583;BME280;46415;47.536;19.066;2023-04-06T06:49:08;100432.25;;;3.56;49.70
60583;BME280;46415;47.536;19.066;2023-04-06T06:52:11;100433.03;;;3.62;49.90
60583;BME280;46415;47.536;19.066;2023-04-06T06:55:14;100426.56;;;3.92;49.36
60583;BME280;46415;47.536;19.066;2023-04-06T06:58:17;100429.72;;;4.08;48.35
60583;BME280;46415;47.536;19.066;2023-04-06T07:01:21;100427.13;;;4.11;47.92
60583;BME280;46415;47.536;19.066;2023-04-06T07:04:25;100426.41;;;4.03;47.59
60583;BME280;46415;47.536;19.066;2023-04-06T07:07:28;100434.09;;;4.04;47.47
60583;BME280;46415;47.536;19.066;2023-04-06T07:10:31;100427.91;;;4.16;46.96
60583;BME280;46415;47.536;19.066;2023-04-06T07:13:34;100430.03;;;4.40;46.28
60583;BME280;46415;47.536;19.066;2023-04-06T07:16:37;100432.94;;;4.70;45.49
60583;BME280;46415;47.536;19.066;2023-04-06T07:19:40;100432.75;;;4.79;45.95
60583;BME280;46415;47.536;19.066;2023-04-06T07:22:43;100431.28;;;4.66;45.52
60583;BME280;46415;47.536;19.066;2023-04-06T07:25:47;100430.53;;;4.59;45.26
60583;BME280;46415;47.536;19.066;2023-04-06T07:28:49;100429.09;;;4.89;44.53
60583;BME280;46415;47.536;19.066;2023-04-06T07:31:53;100428.75;;;5.07;44.07
60583;BME280;46415;47.536;19.066;2023-04-06T07:34:56;100421.75;;;5.14;43.74
60583;BME280;46415;47.536;19.066;2023-04-06T07:37:59;100429.56;;;5.09;43.84
60583;BME280;46415;47.536;19.066;2023-04-06T07:41:02;100422.97;;;5.38;43.17
60583;BME280;46415;47.536;19.066;2023-04-06T07:44:07;100416.09;;;4.98;44.37
60583;BME280;46415;47.536;19.066;2023-04-06T07:47:10;100416.84;;;5.02;44.56
60583;BME280;46415;47.536;19.066;2023-04-06T07:50:13;100416.31;;;5.27;44.65
60583;BME280;46415;47.536;19.066;2023-04-06T07:53:15;100413.34;;;5.46;43.97
60583;BME280;46415;47.536;19.066;2023-04-06T07:56:18;100428.38;;;5.65;43.01
60583;BME280;46415;47.536;19.066;2023-04-06T07:59:21;100418.53;;;5.44;43.02
60583;BME280;46415;47.536;19.066;2023-04-06T08:02:24;100421.06;;;5.46;44.12
60583;BME280;46415;47.536;19.066;2023-04-06T08:05:27;100416.00;;;5.80;43.14
60583;BME280;46415;47.536;19.066;2023-04-06T08:08:29;100410.81;;;5.81;43.18
60583;BME280;46415;47.536;19.066;2023-04-06T08:11:33;100413.00;;;5.99;41.95
60583;BME280;46415;47.536;19.066;2023-04-06T08:14:35;100412.38;;;5.90;42.29
60583;BME280;46415;47.536;19.066;2023-04-06T08:17:38;100410.22;;;5.70;42.60
60583;BME280;46415;47.536;19.066;2023-04-06T08:20:41;100408.66;;;6.01;42.59
60583;BME280;46415;47.536;19.066;2023-04-06T08:23:43;100408.66;;;6.35;41.98
60583;BME280;46415;47.536;19.066;2023-04-06T08:26:46;100402.06;;;6.24;42.17
60583;BME280;46415;47.536;19.066;2023-04-06T08:29:49;100392.13;;;5.73;42.88
60583;BME280;46415;47.536;19.066;2023-04-06T08:32:52;100391.47;;;5.65;43.35
60583;BME280;46415;47.536;19.066;2023-04-06T08:35:55;100395.03;;;5.96;43.06
60583;BME280;46415;47.536;19.066;2023-04-06T08:38:58;100394.38;;;5.88;42.49
60583;BME280;46415;47.536;19.066;2023-04-06T08:42:01;100384.31;;;6.13;41.97
60583;BME280;46415;47.536;19.066;2023-04-06T08:45:05;100386.53;;;6.27;41.95
60583;BME280;46415;47.536;19.066;2023-04-06T08:48:08;100392.66;;;6.23;41.96
60583;BME280;46415;47.536;19.066;2023-04-06T08:51:11;100380.50;;;6.60;41.56
60583;BME280;46415;47.536;19.066;2023-04-06T08:54:14;100383.53;;;6.43;40.55
60583;BME280;46415;47.536;19.066;2023-04-06T08:57:17;100376.56;;;6.78;40.46
60583;BME280;46415;47.536;19.066;2023-04-06T09:00:21;100376.16;;;7.21;40.38
60583;BME280;46415;47.536;19.066;2023-04-06T09:03:23;100367.59;;;7.47;37.69
60583;BME280;46415;47.536;19.066;2023-04-06T09:06:28;100379.63;;;7.20;38.50
60583;BME280;46415;47.536;19.066;2023-04-06T09:09:32;100372.81;;;7.45;37.79
60583;BME280;46415;47.536;19.066;2023-04-06T09:12:35;100368.69;;;7.39;37.60
60583;BME280;46415;47.536;19.066;2023-04-06T09:15:38;100370.00;;;7.53;36.53
60583;BME280;46415;47.536;19.066;2023-04-06T09:18:41;100368.50;;;7.46;36.28
60583;BME280;46415;47.536;19.066;2023-04-06T09:21:43;100365.94;;;7.72;36.49
60583;BME280;46415;47.536;19.066;2023-04-06T09:24:47;100367.19;;;7.60;37.14
60583;BME280;46415;47.536;19.066;2023-04-06T09:28:03;100358.63;;;7.58;37.05
60583;BME280;46415;47.536;19.066;2023-04-06T09:31:06;100369.47;;;8.22;36.32
60583;BME280;46415;47.536;19.066;2023-04-06T09:34:19;100356.75;;;8.16;35.57
60583;BME280;46415;47.536;19.066;2023-04-06T09:37:23;100360.66;;;8.01;36.24
60583;BME280;46415;47.536;19.066;2023-04-06T09:40:25;100355.37;;;8.31;36.31
60583;BME280;46415;47.536;19.066;2023-04-06T09:43:28;100354.72;;;8.24;36.42
60583;BME280;46415;47.536;19.066;2023-04-06T09:46:32;100343.84;;;8.64;35.57
60583;BME280;46415;47.536;19.066;2023-04-06T09:49:55;100350.16;;;8.57;35.45
60583;BME280;46415;47.536;19.066;2023-04-06T09:52:59;100355.03;;;8.65;34.89
60583;BME280;46415;47.536;19.066;2023-04-06T09:56:02;100346.28;;;8.69;33.61
60583;BME280;46415;47.536;19.066;2023-04-06T09:59:08;100347.41;;;8.85;34.35
60583;BME280;46415;47.536;19.066;2023-04-06T10:02:18;100347.62;;;8.79;34.71
60583;BME280;46415;47.536;19.066;2023-04-06T10:05:25;100340.41;;;9.10;33.81
60583;BME280;46415;47.536;19.066;2023-04-06T10:08:30;100339.94;;;9.44;33.61
60583;BME280;46415;47.536;19.066;2023-04-06T10:11:35;100339.81;;;9.25;34.00
60583;BME280;46415;47.536;19.066;2023-04-06T10:14:38;100321.31;;;9.56;33.66
60583;BME280;46415;47.536;19.066;2023-04-06T10:17:41;100318.72;;;9.13;34.08
60583;BME280;46415;47.536;19.066;2023-04-06T10:20:51;100324.81;;;9.77;33.01
60583;BME280;46415;47.536;19.066;2023-04-06T10:23:59;100323.72;;;9.61;33.50
60583;BME280;46415;47.536;19.066;2023-04-06T10:27:03;100318.87;;;9.53;32.55
60583;BME280;46415;47.536;19.066;2023-04-06T10:30:06;100317.41;;;9.88;32.61
60583;BME280;46415;47.536;19.066;2023-04-06T10:33:13;100309.25;;;9.77;33.06
60583;BME280;46415;47.536;19.066;2023-04-06T10:36:27;100304.06;;;9.77;33.00
60583;BME280;46415;47.536;19.066;2023-04-06T10:39:30;100309.00;;;9.61;33.17
60583;BME280;46415;47.536;19.066;2023-04-06T10:42:36;100304.59;;;10.05;32.66
60583;BME280;46415;47.536;19.066;2023-04-06T10:45:40;100295.16;;;10.25;31.43
60583;BME280;46415;47.536;19.066;2023-04-06T10:48:44;100297.03;;;10.60;31.30
60583;BME280;46415;47.536;19.066;2023-04-06T10:51:53;100294.78;;;10.71;30.50
60583;BME280;46415;47.536;19.066;2023-04-06T10:54:56;100298.37;;;10.30;30.49
60583;BME280;46415;47.536;19.066;2023-04-06T10:57:59;100299.28;;;10.29;31.00
60583;BME280;46415;47.536;19.066;2023-04-06T11:01:02;100295.41;;;10.18;31.00
60583;BME280;46415;47.536;19.066;2023-04-06T11:04:05;100298.44;;;10.28;30.22
60583;BME280;46415;47.536;19.066;2023-04-06T11:07:10;100289.88;;;10.06;30.74
60583;BME280;46415;47.536;19.066;2023-04-06T11:10:20;100284.87;;;10.42;30.93
60583;BME280;46415;47.536;19.066;2023-04-06T11:13:23;100286.50;;;10.63;29.39
60583;BME280;46415;47.536;19.066;2023-04-06T11:16:26;100274.78;;;10.73;29.70
60583;BME280;46415;47.536;19.066;2023-04-06T11:19:31;100280.13;;;10.89;30.08
60583;BME280;46415;47.536;19.066;2023-04-06T11:22:33;100279.31;;;11.05;29.68
60583;BME280;46415;47.536;19.066;2023-04-06T11:25:36;100274.69;;;10.93;29.61
60583;BME280;46415;47.536;19.066;2023-04-06T11:28:39;100272.09;;;10.93;29.94
60583;BME280;46415;47.536;19.066;2023-04-06T11:31:47;100273.38;;;10.66;29.98
60583;BME280;46415;47.536;19.066;2023-04-06T11:34:49;100269.38;;;10.40;30.07
60583;BME280;46415;47.536;19.066;2023-04-06T11:37:52;100259.41;;;10.69;29.32
60583;BME280;46415;47.536;19.066;2023-04-06T11:40:55;100257.16;;;10.98;29.15
60583;BME280;46415;47.536;19.066;2023-04-06T11:44:03;100257.22;;;11.33;29.20
60583;BME280;46415;47.536;19.066;2023-04-06T11:47:06;100265.97;;;11.49;29.23
60583;BME280;46415;47.536;19.066;2023-04-06T11:50:10;100259.53;;;11.56;29.05
60583;BME280;46415;47.536;19.066;2023-04-06T11:53:13;100256.28;;;11.17;29.76
60583;BME280;46415;47.536;19.066;2023-04-06T11:56:28;100251.16;;;11.32;30.00
60583;BME280;46415;47.536;19.066;2023-04-06T11:59:31;100247.75;;;10.96;29.71
60583;BME280;46415;47.536;19.066;2023-04-06T12:02:37;100246.75;;;10.98;29.52
60583;BME280;46415;47.536;19.066;2023-04-06T12:05:41;100239.16;;;10.58;30.19
60583;BME280;46415;47.536;19.066;2023-04-06T12:08:43;100240.25;;;10.34;29.77
60583;BME280;46415;47.536;19.066;2023-04-06T12:11:47;100238.84;;;10.06;30.49
60583;BME280;46415;47.536;19.066;2023-04-06T12:14:49;100239.97;;;9.80;31.46
60583;BME280;46415;47.536;19.066;2023-04-06T12:17:52;100241.84;;;9.57;32.22
60583;BME280;46415;47.536;19.066;2023-04-06T12:20:55;100238.41;;;9.56;30.17
60583;BME280;46415;47.536;19.066;2023-04-06T12:23:58;100235.22;;;9.50;31.11
60583;BME280;46415;47.536;19.066;2023-04-06T12:27:00;100238.34;;;9.78;30.85
60583;BME280;46415;47.536;19.066;2023-04-06T12:30:11;100228.88;;;9.97;30.55
60583;BME280;46415;47.536;19.066;2023-04-06T12:33:15;100242.31;;;10.83;29.54
60583;BME280;46415;47.536;19.066;2023-04-06T12:36:18;100233.63;;;11.37;29.55
60583;BME280;46415;47.536;19.066;2023-04-06T12:39:21;100230.94;;;11.56;29.30
60583;BME280;46415;47.536;19.066;2023-04-06T12:42:25;100227.44;;;11.74;29.48
60583;BME280;46415;47.536;19.066;2023-04-06T12:45:32;100225.53;;;11.43;29.54
60583;BME280;46415;47.536;19.066;2023-04-06T12:48:35;100217.38;;;11.15;30.07
60583;BME280;46415;47.536;19.066;2023-04-06T12:51:38;100221.81;;;10.77;30.14
60583;BME280;46415;47.536;19.066;2023-04-06T12:54:41;100219.16;;;10.60;30.95
60583;BME280;46415;47.536;19.066;2023-04-06T12:57:44;100215.06;;;11.09;30.96
60583;BME280;46415;47.536;19.066;2023-04-06T13:00:49;100224.00;;;11.03;31.84
60583;BME280;46415;47.536;19.066;2023-04-06T13:03:52;100218.31;;;11.14;31.60
60583;BME280;46415;47.536;19.066;2023-04-06T13:06:55;100224.69;;;10.90;31.93
60583;BME280;46415;47.536;19.066;2023-04-06T13:09:57;100222.66;;;10.78;32.03
60583;BME280;46415;47.536;19.066;2023-04-06T13:13:00;100224.75;;;10.70;31.77
60583;BME280;46415;47.536;19.066;2023-04-06T13:16:04;100217.31;;;10.81;31.92
60583;BME280;46415;47.536;19.066;2023-04-06T13:19:07;100223.63;;;10.75;32.10
60583;BME280;46415;47.536;19.066;2023-04-06T13:22:10;100216.63;;;10.58;32.33
60583;BME280;46415;47.536;19.066;2023-04-06T13:25:12;100209.75;;;10.20;33.29
60583;BME280;46415;47.536;19.066;2023-04-06T13:28:15;100220.34;;;9.75;33.58
60583;BME280;46415;47.536;19.066;2023-04-06T13:31:18;100222.28;;;9.70;33.99
60583;BME280;46415;47.536;19.066;2023-04-06T13:34:20;100222.03;;;9.56;35.14
60583;BME280;46415;47.536;19.066;2023-04-06T13:37:23;100218.38;;;9.39;36.13
60583;BME280;46415;47.536;19.066;2023-04-06T13:40:26;100210.72;;;9.36;35.61
60583;BME280;46415;47.536;19.066;2023-04-06T13:43:29;100240.25;;;9.32;36.78
60583;BME280;46415;47.536;19.066;2023-04-06T13:46:31;100231.78;;;9.07;37.33
60583;BME280;46415;47.536;19.066;2023-04-06T13:49:34;100227.34;;;9.11;37.42
60583;BME280;46415;47.536;19.066;2023-04-06T13:52:38;100207.03;;;9.42;36.56
60583;BME280;46415;47.536;19.066;2023-04-06T13:55:40;100194.69;;;9.69;36.74
60583;BME280;46415;47.536;19.066;2023-04-06T13:58:43;100201.44;;;10.12;34.98
60583;BME280;46415;47.536;19.066;2023-04-06T14:01:47;100197.69;;;10.38;34.69
60583;BME280;46415;47.536;19.066;2023-04-06T14:04:50;100182.34;;;10.52;35.37
60583;BME280;46415;47.536;19.066;2023-04-06T14:07:52;100194.69;;;10.28;34.59
60583;BME280;46415;47.536;19.066;2023-04-06T14:10:55;100195.53;;;10.08;34.26
60583;BME280;46415;47.536;19.066;2023-04-06T14:13:59;100189.78;;;10.02;33.84
60583;BME280;46415;47.536;19.066;2023-04-06T14:17:01;100186.66;;;9.75;33.56
60583;BME280;46415;47.536;19.066;2023-04-06T14:20:07;100189.19;;;9.56;35.07
60583;BME280;46415;47.536;19.066;2023-04-06T14:23:10;100182.97;;;9.60;35.14
60583;BME280;46415;47.536;19.066;2023-04-06T14:26:13;100192.44;;;9.41;35.76
60583;BME280;46415;47.536;19.066;2023-04-06T14:29:17;100188.41;;;8.92;36.89
60583;BME280;46415;47.536;19.066;2023-04-06T14:32:19;100198.97;;;9.29;36.40
60583;BME280;46415;47.536;19.066;2023-04-06T14:35:23;100198.47;;;8.99;36.08
60583;BME280;46415;47.536;19.066;2023-04-06T14:38:25;100194.03;;;9.01;36.32
60583;BME280;46415;47.536;19.066;2023-04-06T14:41:29;100198.50;;;8.98;36.82
60583;BME280;46415;47.536;19.066;2023-04-06T14:44:32;100212.47;;;8.72;38.57
60583;BME280;46415;47.536;19.066;2023-04-06T14:47:35;100209.31;;;8.64;39.75
60583;BME280;46415;47.536;19.066;2023-04-06T14:50:38;100210.41;;;8.35;40.78
60583;BME280;46415;47.536;19.066;2023-04-06T14:53:41;100223.25;;;8.38;41.17
60583;BME280;46415;47.536;19.066;2023-04-06T14:56:44;100224.72;;;8.45;41.10
60583;BME280;46415;47.536;19.066;2023-04-06T14:59:47;100227.97;;;8.02;42.00
60583;BME280;46415;47.536;19.066;2023-04-06T15:02:49;100232.00;;;7.86;43.60
60583;BME280;46415;47.536;19.066;2023-04-06T15:05:52;100235.69;;;7.54;46.54
60583;BME280;46415;47.536;19.066;2023-04-06T15:08:55;100248.78;;;7.48;48.61
60583;BME280;46415;47.536;19.066;2023-04-06T15:11:58;100240.63;;;7.34;50.08
60583;BME280;46415;47.536;19.066;2023-04-06T15:15:00;100237.09;;;7.38;50.25
60583;BME280;46415;47.536;19.066;2023-04-06T15:18:04;100231.75;;;7.43;51.42
60583;BME280;46415;47.536;19.066;2023-04-06T15:21:07;100241.03;;;7.22;51.89
60583;BME280;46415;47.536;19.066;2023-04-06T15:24:09;100241.53;;;7.07;53.34
60583;BME280;46415;47.536;19.066;2023-04-06T15:27:12;100244.53;;;6.93;55.24
60583;BME280;46415;47.536;19.066;2023-04-06T15:30:14;100246.38;;;6.89;55.75
60583;BME280;46415;47.536;19.066;2023-04-06T15:33:19;100239.00;;;6.77;57.95
60583;BME280;46415;47.536;19.066;2023-04-06T15:39:25;100244.06;;;6.80;59.95
60583;BME280;46415;47.536;19.066;2023-04-06T15:42:28;100242.84;;;6.64;59.81
60583;BME280;46415;47.536;19.066;2023-04-06T15:45:31;100243.13;;;6.55;60.04
60583;BME280;46415;47.536;19.066;2023-04-06T15:48:33;100241.91;;;6.67;59.32
60583;BME280;46415;47.536;19.066;2023-04-06T15:51:36;100246.06;;;6.43;59.47
60583;BME280;46415;47.536;19.066;2023-04-06T15:54:39;100241.25;;;6.31;60.76
60583;BME280;46415;47.536;19.066;2023-04-06T15:57:42;100242.22;;;6.56;60.20